FKYS/NSI METAR and TAF weather

Enter ICAO airport designator
Station Type Date Time Source
FKYS METAR 2018/01/19 17:00 UTC NOAA

FKYS 191700Z 26003KT 4000 HZ BKN023 28/20 Q1013 NOSIG


Station Type Date Time Source
FKYS Decoded METAR 2018/01/19 17:00 UTC NOAA

Yaounde, Cameroon (FKYS) 03-50N 011-31E 760M
Jan 19, 2018 - 12:00 PM EST / 2018.01.19 1700 UTC
Wind: from the W (260 degrees) at 3 MPH (3 KT):0
Visibility: 2 mile(s):0
Sky conditions: mostly cloudy
Weather: haze
Temperature: 82 F (28 C)
Dew Point: 68 F (20 C)
Relative Humidity: 61%
Pressure (altimeter): 29.91 in. Hg (1013 hPa)
ob: FKYS 191700Z 26003KT 4000 HZ BKN023 28/20 Q1013 NOSIG
cycle: 17

Station Type Date Time Source
FKYS TAF 2018/01/19 18:18 UTC NOAA

TAF FKYS 191700Z 1918/2018 26004KT 4000 HZ BKN013
BECMG 1920/1922 BKN006
TEMPO 2003/2008 2000 BR
BECMG 2008/2010 BKN016


Example: see airport list